sensor_id;sensor_type;location;lat;lon;timestamp;temperature;humidity
22426;DHT22;11380;50.822;15.790;2023-06-10T00:04:55;14.60;1.00
22426;DHT22;11380;50.822;15.790;2023-06-10T00:10:02;14.50;1.00
22426;DHT22;11380;50.822;15.790;2023-06-10T00:15:12;14.10;1.00
22426;DHT22;11380;50.822;15.790;2023-06-10T00:20:20;14.00;1.00
22426;DHT22;11380;50.822;15.790;2023-06-10T00:25:29;13.90;1.00
22426;DHT22;11380;50.822;15.790;2023-06-10T00:30:37;13.90;1.00
22426;DHT22;11380;50.822;15.790;2023-06-10T00:35:45;14.10;1.00
22426;DHT22;11380;50.822;15.790;2023-06-10T00:40:52;14.10;1.00
22426;DHT22;11380;50.822;15.790;2023-06-10T00:45:59;13.90;1.00
22426;DHT22;11380;50.822;15.790;2023-06-10T00:51:07;14.10;1.00
22426;DHT22;11380;50.822;15.790;2023-06-10T00:56:15;14.10;1.00
22426;DHT22;11380;50.822;15.790;2023-06-10T01:01:23;14.10;1.00
22426;DHT22;11380;50.822;15.790;2023-06-10T01:12:37;13.80;1.00
22426;DHT22;11380;50.822;15.790;2023-06-10T01:18:04;13.40;1.00
22426;DHT22;11380;50.822;15.790;2023-06-10T01:23:16;13.30;4.20
22426;DHT22;11380;50.822;15.790;2023-06-10T01:28:35;13.30;64.90
22426;DHT22;11380;50.822;15.790;2023-06-10T01:33:49;13.50;73.10
22426;DHT22;11380;50.822;15.790;2023-06-10T01:39:00;13.50;8.10
22426;DHT22;11380;50.822;15.790;2023-06-10T01:44:07;13.50;1.00
22426;DHT22;11380;50.822;15.790;2023-06-10T01:49:15;13.40;27.40
22426;DHT22;11380;50.822;15.790;2023-06-10T01:54:22;13.50;8.10
22426;DHT22;11380;50.822;15.790;2023-06-10T01:59:30;13.50;1.00
22426;DHT22;11380;50.822;15.790;2023-06-10T02:04:36;13.20;1.00
22426;DHT22;11380;50.822;15.790;2023-06-10T02:09:42;13.20;1.00
22426;DHT22;11380;50.822;15.790;2023-06-10T02:14:50;13.10;1.00
22426;DHT22;11380;50.822;15.790;2023-06-10T02:19:57;13.00;1.00
22426;DHT22;11380;50.822;15.790;2023-06-10T02:25:06;12.50;1.00
22426;DHT22;11380;50.822;15.790;2023-06-10T02:30:14;12.80;1.00
22426;DHT22;11380;50.822;15.790;2023-06-10T02:35:21;12.90;1.00
22426;DHT22;11380;50.822;15.790;2023-06-10T02:40:30;12.70;36.60
22426;DHT22;11380;50.822;15.790;2023-06-10T02:45:37;12.90;8.70
22426;DHT22;11380;50.822;15.790;2023-06-10T02:50:45;13.10;1.00
22426;DHT22;11380;50.822;15.790;2023-06-10T02:55:52;13.10;1.00
22426;DHT22;11380;50.822;15.790;2023-06-10T03:00:59;13.00;1.00
22426;DHT22;11380;50.822;15.790;2023-06-10T03:06:06;13.00;1.00
22426;DHT22;11380;50.822;15.790;2023-06-10T03:11:13;13.00;1.00
22426;DHT22;11380;50.822;15.790;2023-06-10T03:16:19;13.00;1.00
22426;DHT22;11380;50.822;15.790;2023-06-10T03:21:28;13.20;1.00
22426;DHT22;11380;50.822;15.790;2023-06-10T03:26:35;13.20;37.50
22426;DHT22;11380;50.822;15.790;2023-06-10T03:31:42;13.10;93.50
22426;DHT22;11380;50.822;15.790;2023-06-10T03:36:50;13.20;99.90
22426;DHT22;11380;50.822;15.790;2023-06-10T03:41:57;13.40;99.90
22426;DHT22;11380;50.822;15.790;2023-06-10T03:47:04;13.50;99.90
22426;DHT22;11380;50.822;15.790;2023-06-10T03:52:11;13.50;99.90
22426;DHT22;11380;50.822;15.790;2023-06-10T03:57:19;13.50;99.90
22426;DHT22;11380;50.822;15.790;2023-06-10T04:02:26;13.50;99.90
22426;DHT22;11380;50.822;15.790;2023-06-10T04:07:34;13.60;99.90
22426;DHT22;11380;50.822;15.790;2023-06-10T04:12:41;13.70;99.90
22426;DHT22;11380;50.822;15.790;2023-06-10T04:17:50;13.90;99.90
22426;DHT22;11380;50.822;15.790;2023-06-10T04:22:59;13.70;99.90
22426;DHT22;11380;50.822;15.790;2023-06-10T04:28:06;13.80;99.90
22426;DHT22;11380;50.822;15.790;2023-06-10T04:33:14;14.10;99.90
22426;DHT22;11380;50.822;15.790;2023-06-10T04:38:21;14.20;99.90
22426;DHT22;11380;50.822;15.790;2023-06-10T04:43:30;14.30;99.90
22426;DHT22;11380;50.822;15.790;2023-06-10T04:48:37;14.50;99.90
22426;DHT22;11380;50.822;15.790;2023-06-10T04:53:47;14.70;99.90
22426;DHT22;11380;50.822;15.790;2023-06-10T04:58:54;14.90;99.90
22426;DHT22;11380;50.822;15.790;2023-06-10T05:04:01;14.90;99.90
22426;DHT22;11380;50.822;15.790;2023-06-10T05:09:09;15.10;99.90
22426;DHT22;11380;50.822;15.790;2023-06-10T05:14:17;15.20;99.90
22426;DHT22;11380;50.822;15.790;2023-06-10T05:19:25;15.30;99.90
22426;DHT22;11380;50.822;15.790;2023-06-10T05:24:33;15.10;99.90
22426;DHT22;11380;50.822;15.790;2023-06-10T05:29:41;15.30;99.90
22426;DHT22;11380;50.822;15.790;2023-06-10T05:34:48;15.30;99.90
22426;DHT22;11380;50.822;15.790;2023-06-10T05:39:57;15.30;99.90
22426;DHT22;11380;50.822;15.790;2023-06-10T05:45:06;15.50;99.90
22426;DHT22;11380;50.822;15.790;2023-06-10T05:50:14;15.50;99.90
22426;DHT22;11380;50.822;15.790;2023-06-10T05:55:21;15.70;99.90
22426;DHT22;11380;50.822;15.790;2023-06-10T06:00:28;15.80;99.90
22426;DHT22;11380;50.822;15.790;2023-06-10T06:05:41;16.00;99.90
22426;DHT22;11380;50.822;15.790;2023-06-10T06:10:45;16.10;99.90
22426;DHT22;11380;50.822;15.790;2023-06-10T06:15:53;16.20;99.90
22426;DHT22;11380;50.822;15.790;2023-06-10T06:21:01;16.30;99.90
22426;DHT22;11380;50.822;15.790;2023-06-10T06:26:08;16.40;99.90
22426;DHT22;11380;50.822;15.790;2023-06-10T06:31:15;16.70;99.90
22426;DHT22;11380;50.822;15.790;2023-06-10T06:36:22;16.90;99.90
22426;DHT22;11380;50.822;15.790;2023-06-10T06:41:30;16.90;99.90
22426;DHT22;11380;50.822;15.790;2023-06-10T06:46:37;16.90;99.90
22426;DHT22;11380;50.822;15.790;2023-06-10T06:51:46;16.80;99.90
22426;DHT22;11380;50.822;15.790;2023-06-10T06:56:52;16.90;99.90
22426;DHT22;11380;50.822;15.790;2023-06-10T07:02:00;16.80;99.90
22426;DHT22;11380;50.822;15.790;2023-06-10T07:07:10;16.90;99.90
22426;DHT22;11380;50.822;15.790;2023-06-10T07:12:17;17.10;99.90
22426;DHT22;11380;50.822;15.790;2023-06-10T07:17:26;17.40;99.90
22426;DHT22;11380;50.822;15.790;2023-06-10T07:22:33;17.70;99.90
22426;DHT22;11380;50.822;15.790;2023-06-10T07:27:40;17.70;99.90
22426;DHT22;11380;50.822;15.790;2023-06-10T07:32:47;17.80;99.90
22426;DHT22;11380;50.822;15.790;2023-06-10T07:37:54;17.80;99.90
22426;DHT22;11380;50.822;15.790;2023-06-10T07:43:01;17.70;99.90
22426;DHT22;11380;50.822;15.790;2023-06-10T07:48:08;17.80;99.90
22426;DHT22;11380;50.822;15.790;2023-06-10T07:53:15;17.80;99.90
22426;DHT22;11380;50.822;15.790;2023-06-10T07:58:22;17.70;99.90
22426;DHT22;11380;50.822;15.790;2023-06-10T08:03:30;17.70;99.90
22426;DHT22;11380;50.822;15.790;2023-06-10T08:08:37;17.80;99.90
22426;DHT22;11380;50.822;15.790;2023-06-10T08:13:47;17.90;99.90
22426;DHT22;11380;50.822;15.790;2023-06-10T08:18:54;18.00;99.90
22426;DHT22;11380;50.822;15.790;2023-06-10T08:24:01;18.10;99.90
22426;DHT22;11380;50.822;15.790;2023-06-10T08:29:11;18.30;99.90
22426;DHT22;11380;50.822;15.790;2023-06-10T08:34:19;18.40;99.90
22426;DHT22;11380;50.822;15.790;2023-06-10T08:39:26;18.40;99.90
22426;DHT22;11380;50.822;15.790;2023-06-10T08:44:36;18.70;99.90
22426;DHT22;11380;50.822;15.790;2023-06-10T08:49:45;18.70;99.90
22426;DHT22;11380;50.822;15.790;2023-06-10T08:55:03;19.00;99.90
22426;DHT22;11380;50.822;15.790;2023-06-10T09:00:13;19.10;99.90
22426;DHT22;11380;50.822;15.790;2023-06-10T09:05:22;19.40;99.90
22426;DHT22;11380;50.822;15.790;2023-06-10T09:10:29;19.50;99.90
22426;DHT22;11380;50.822;15.790;2023-06-10T09:15:36;19.70;84.10
22426;DHT22;11380;50.822;15.790;2023-06-10T09:20:46;19.90;1.00
22426;DHT22;11380;50.822;15.790;2023-06-10T09:25:57;20.30;1.00
22426;DHT22;11380;50.822;15.790;2023-06-10T09:31:06;21.90;1.00
22426;DHT22;11380;50.822;15.790;2023-06-10T09:36:22;21.70;1.00
22426;DHT22;11380;50.822;15.790;2023-06-10T09:41:35;22.10;1.00
22426;DHT22;11380;50.822;15.790;2023-06-10T09:46:48;22.60;1.00
22426;DHT22;11380;50.822;15.790;2023-06-10T09:51:56;22.80;1.00
22426;DHT22;11380;50.822;15.790;2023-06-10T09:57:08;22.90;1.00
22426;DHT22;11380;50.822;15.790;2023-06-10T10:02:15;23.00;1.00
22426;DHT22;11380;50.822;15.790;2023-06-10T10:07:22;23.80;1.00
22426;DHT22;11380;50.822;15.790;2023-06-10T10:12:30;22.30;1.00
22426;DHT22;11380;50.822;15.790;2023-06-10T10:17:44;22.30;1.00
22426;DHT22;11380;50.822;15.790;2023-06-10T10:22:56;22.10;1.00
22426;DHT22;11380;50.822;15.790;2023-06-10T10:28:12;21.90;1.00
22426;DHT22;11380;50.822;15.790;2023-06-10T10:33:28;22.20;1.00
22426;DHT22;11380;50.822;15.790;2023-06-10T10:38:36;22.90;1.00
22426;DHT22;11380;50.822;15.790;2023-06-10T10:43:44;22.00;1.00
22426;DHT22;11380;50.822;15.790;2023-06-10T10:48:54;21.50;1.00
22426;DHT22;11380;50.822;15.790;2023-06-10T10:54:13;22.40;1.00
22426;DHT22;11380;50.822;15.790;2023-06-10T10:59:20;22.80;1.00
22426;DHT22;11380;50.822;15.790;2023-06-10T11:04:27;22.80;1.00
22426;DHT22;11380;50.822;15.790;2023-06-10T11:09:34;22.60;1.00
22426;DHT22;11380;50.822;15.790;2023-06-10T11:14:43;23.40;1.00
22426;DHT22;11380;50.822;15.790;2023-06-10T11:19:53;23.50;1.00
22426;DHT22;11380;50.822;15.790;2023-06-10T11:25:02;22.90;1.00
22426;DHT22;11380;50.822;15.790;2023-06-10T11:30:20;22.80;1.00
22426;DHT22;11380;50.822;15.790;2023-06-10T11:35:27;23.60;1.00
22426;DHT22;11380;50.822;15.790;2023-06-10T11:40:36;22.80;1.00
22426;DHT22;11380;50.822;15.790;2023-06-10T11:45:43;24.10;1.00
22426;DHT22;11380;50.822;15.790;2023-06-10T11:50:50;24.00;1.00
22426;DHT22;11380;50.822;15.790;2023-06-10T11:55:58;24.50;1.00
22426;DHT22;11380;50.822;15.790;2023-06-10T12:01:05;24.50;1.00
22426;DHT22;11380;50.822;15.790;2023-06-10T12:06:14;24.90;1.00
22426;DHT22;11380;50.822;15.790;2023-06-10T12:11:22;24.10;1.00
22426;DHT22;11380;50.822;15.790;2023-06-10T12:16:31;24.70;1.00
22426;DHT22;11380;50.822;15.790;2023-06-10T12:21:39;24.80;1.00
22426;DHT22;11380;50.822;15.790;2023-06-10T12:26:47;23.70;1.00
22426;DHT22;11380;50.822;15.790;2023-06-10T12:37:11;24.00;1.00
22426;DHT22;11380;50.822;15.790;2023-06-10T12:42:22;23.50;1.00
22426;DHT22;11380;50.822;15.790;2023-06-10T12:47:34;23.80;1.00
22426;DHT22;11380;50.822;15.790;2023-06-10T12:52:44;22.00;1.00
22426;DHT22;11380;50.822;15.790;2023-06-10T12:57:52;18.20;99.90
22426;DHT22;11380;50.822;15.790;2023-06-10T13:03:00;17.30;1.00
22426;DHT22;11380;50.822;15.790;2023-06-10T13:08:08;17.50;1.00
22426;DHT22;11380;50.822;15.790;2023-06-10T13:13:16;18.10;1.00
22426;DHT22;11380;50.822;15.790;2023-06-10T13:18:23;18.60;1.00
22426;DHT22;11380;50.822;15.790;2023-06-10T13:23:32;18.30;1.00
22426;DHT22;11380;50.822;15.790;2023-06-10T13:28:39;18.60;47.70
22426;DHT22;11380;50.822;15.790;2023-06-10T13:33:46;18.40;99.90
22426;DHT22;11380;50.822;15.790;2023-06-10T13:38:54;18.40;1.00
22426;DHT22;11380;50.822;15.790;2023-06-10T13:44:01;18.30;55.20
22426;DHT22;11380;50.822;15.790;2023-06-10T13:49:09;18.50;25.40
22426;DHT22;11380;50.822;15.790;2023-06-10T13:54:17;18.60;2.80
22426;DHT22;11380;50.822;15.790;2023-06-10T13:59:24;18.80;32.60
22426;DHT22;11380;50.822;15.790;2023-06-10T14:04:31;18.90;27.90
22426;DHT22;11380;50.822;15.790;2023-06-10T14:09:38;19.00;29.30
22426;DHT22;11380;50.822;15.790;2023-06-10T14:14:46;19.00;43.70
22426;DHT22;11380;50.822;15.790;2023-06-10T14:19:54;19.40;99.90
22426;DHT22;11380;50.822;15.790;2023-06-10T14:25:01;20.10;99.90
22426;DHT22;11380;50.822;15.790;2023-06-10T14:30:09;20.40;1.00
22426;DHT22;11380;50.822;15.790;2023-06-10T14:35:16;21.10;1.00
22426;DHT22;11380;50.822;15.790;2023-06-10T14:40:23;21.20;1.00
22426;DHT22;11380;50.822;15.790;2023-06-10T14:45:31;21.50;1.00
22426;DHT22;11380;50.822;15.790;2023-06-10T14:50:40;21.60;1.00
22426;DHT22;11380;50.822;15.790;2023-06-10T14:55:49;21.40;1.00
22426;DHT22;11380;50.822;15.790;2023-06-10T15:00:56;21.20;1.00
22426;DHT22;11380;50.822;15.790;2023-06-10T15:06:03;21.30;1.00
22426;DHT22;11380;50.822;15.790;2023-06-10T15:11:10;21.90;1.00
22426;DHT22;11380;50.822;15.790;2023-06-10T15:16:17;22.40;1.00
22426;DHT22;11380;50.822;15.790;2023-06-10T15:21:25;22.70;1.00
22426;DHT22;11380;50.822;15.790;2023-06-10T15:26:31;23.00;1.00
22426;DHT22;11380;50.822;15.790;2023-06-10T15:31:39;23.10;1.00
22426;DHT22;11380;50.822;15.790;2023-06-10T15:36:46;23.30;1.00
22426;DHT22;11380;50.822;15.790;2023-06-10T15:41:53;23.50;1.00
22426;DHT22;11380;50.822;15.790;2023-06-10T15:47:02;23.40;1.00
22426;DHT22;11380;50.822;15.790;2023-06-10T15:52:09;23.70;1.00
22426;DHT22;11380;50.822;15.790;2023-06-10T15:57:17;23.60;1.00
22426;DHT22;11380;50.822;15.790;2023-06-10T16:02:24;23.60;1.00
22426;DHT22;11380;50.822;15.790;2023-06-10T16:07:31;23.30;1.00
22426;DHT22;11380;50.822;15.790;2023-06-10T16:12:37;23.40;1.00
22426;DHT22;11380;50.822;15.790;2023-06-10T16:17:45;23.60;1.00
22426;DHT22;11380;50.822;15.790;2023-06-10T16:22:52;23.50;1.00
22426;DHT22;11380;50.822;15.790;2023-06-10T16:27:59;22.90;1.00
22426;DHT22;11380;50.822;15.790;2023-06-10T16:33:08;23.00;1.00
22426;DHT22;11380;50.822;15.790;2023-06-10T16:38:16;22.70;1.00
22426;DHT22;11380;50.822;15.790;2023-06-10T16:43:23;22.80;1.00
22426;DHT22;11380;50.822;15.790;2023-06-10T16:48:31;22.90;1.00
22426;DHT22;11380;50.822;15.790;2023-06-10T16:53:40;23.00;1.00
22426;DHT22;11380;50.822;15.790;2023-06-10T16:58:47;22.90;1.00
22426;DHT22;11380;50.822;15.790;2023-06-10T17:03:54;23.00;1.00
22426;DHT22;11380;50.822;15.790;2023-06-10T17:09:01;22.70;1.00
22426;DHT22;11380;50.822;15.790;2023-06-10T17:14:09;22.30;99.90
22426;DHT22;11380;50.822;15.790;2023-06-10T17:19:15;22.20;1.00
22426;DHT22;11380;50.822;15.790;2023-06-10T17:24:22;21.80;99.90
22426;DHT22;11380;50.822;15.790;2023-06-10T17:29:29;21.60;99.90
22426;DHT22;11380;50.822;15.790;2023-06-10T17:34:36;21.60;99.90
22426;DHT22;11380;50.822;15.790;2023-06-10T17:39:44;21.30;99.90
22426;DHT22;11380;50.822;15.790;2023-06-10T17:44:52;21.30;16.10
22426;DHT22;11380;50.822;15.790;2023-06-10T17:49:59;21.30;1.00
22426;DHT22;11380;50.822;15.790;2023-06-10T17:55:07;21.20;1.00
22426;DHT22;11380;50.822;15.790;2023-06-10T18:00:15;21.00;1.00
22426;DHT22;11380;50.822;15.790;2023-06-10T18:05:23;20.70;1.00
22426;DHT22;11380;50.822;15.790;2023-06-10T18:10:30;20.70;1.00
22426;DHT22;11380;50.822;15.790;2023-06-10T18:15:37;20.30;99.90
22426;DHT22;11380;50.822;15.790;2023-06-10T18:20:45;19.80;99.90
22426;DHT22;11380;50.822;15.790;2023-06-10T18:25:52;19.70;99.90
22426;DHT22;11380;50.822;15.790;2023-06-10T18:31:00;19.20;99.90
22426;DHT22;11380;50.822;15.790;2023-06-10T18:36:07;19.10;99.90
22426;DHT22;11380;50.822;15.790;2023-06-10T18:41:14;18.80;1.00
22426;DHT22;11380;50.822;15.790;2023-06-10T18:46:21;18.50;1.00
22426;DHT22;11380;50.822;15.790;2023-06-10T18:51:28;18.40;1.00
22426;DHT22;11380;50.822;15.790;2023-06-10T18:56:36;17.90;1.00
22426;DHT22;11380;50.822;15.790;2023-06-10T19:01:44;17.50;1.00
22426;DHT22;11380;50.822;15.790;2023-06-10T19:06:52;17.70;99.90
22426;DHT22;11380;50.822;15.790;2023-06-10T19:11:59;17.60;99.90
22426;DHT22;11380;50.822;15.790;2023-06-10T19:17:06;17.60;1.00
22426;DHT22;11380;50.822;15.790;2023-06-10T19:22:13;17.60;99.90
22426;DHT22;11380;50.822;15.790;2023-06-10T19:27:21;17.60;99.90
22426;DHT22;11380;50.822;15.790;2023-06-10T19:32:28;17.60;1.00
22426;DHT22;11380;50.822;15.790;2023-06-10T19:37:34;17.00;99.90
22426;DHT22;11380;50.822;15.790;2023-06-10T19:42:42;17.00;1.00
22426;DHT22;11380;50.822;15.790;2023-06-10T19:47:57;16.50;99.90
22426;DHT22;11380;50.822;15.790;2023-06-10T19:52:58;16.10;99.90
22426;DHT22;11380;50.822;15.790;2023-06-10T19:58:05;15.80;1.00
22426;DHT22;11380;50.822;15.790;2023-06-10T20:03:13;15.40;1.00
22426;DHT22;11380;50.822;15.790;2023-06-10T20:08:21;15.20;1.00
22426;DHT22;11380;50.822;15.790;2023-06-10T20:13:28;14.80;1.00
22426;DHT22;11380;50.822;15.790;2023-06-10T20:18:35;15.00;1.00
22426;DHT22;11380;50.822;15.790;2023-06-10T20:23:43;14.70;1.00
22426;DHT22;11380;50.822;15.790;2023-06-10T20:28:51;14.70;1.00
22426;DHT22;11380;50.822;15.790;2023-06-10T20:33:59;14.60;1.00
22426;DHT22;11380;50.822;15.790;2023-06-10T20:39:06;14.40;1.00
22426;DHT22;11380;50.822;15.790;2023-06-10T20:44:14;14.60;1.00
22426;DHT22;11380;50.822;15.790;2023-06-10T20:49:23;14.30;1.00
22426;DHT22;11380;50.822;15.790;2023-06-10T20:54:30;14.50;1.00
22426;DHT22;11380;50.822;15.790;2023-06-10T20:59:38;14.40;1.00
22426;DHT22;11380;50.822;15.790;2023-06-10T21:04:45;14.20;1.00
22426;DHT22;11380;50.822;15.790;2023-06-10T21:09:52;13.80;1.00
22426;DHT22;11380;50.822;15.790;2023-06-10T21:14:59;13.40;1.00
22426;DHT22;11380;50.822;15.790;2023-06-10T21:20:07;13.70;1.00
22426;DHT22;11380;50.822;15.790;2023-06-10T21:25:14;13.80;1.00
22426;DHT22;11380;50.822;15.790;2023-06-10T21:30:22;13.70;1.00
22426;DHT22;11380;50.822;15.790;2023-06-10T21:35:30;13.70;1.00
22426;DHT22;11380;50.822;15.790;2023-06-10T21:40:37;13.40;1.00
22426;DHT22;11380;50.822;15.790;2023-06-10T21:45:44;13.10;1.00
22426;DHT22;11380;50.822;15.790;2023-06-10T21:50:52;13.20;1.00
22426;DHT22;11380;50.822;15.790;2023-06-10T21:56:00;12.80;1.00
22426;DHT22;11380;50.822;15.790;2023-06-10T22:01:07;13.00;1.00
22426;DHT22;11380;50.822;15.790;2023-06-10T22:06:15;12.90;1.00
22426;DHT22;11380;50.822;15.790;2023-06-10T22:11:22;12.80;1.00
22426;DHT22;11380;50.822;15.790;2023-06-10T22:16:29;12.50;1.00
22426;DHT22;11380;50.822;15.790;2023-06-10T22:21:37;12.20;1.00
22426;DHT22;11380;50.822;15.790;2023-06-10T22:26:44;12.40;1.00
22426;DHT22;11380;50.822;15.790;2023-06-10T22:31:54;12.10;1.00
22426;DHT22;11380;50.822;15.790;2023-06-10T22:37:01;11.90;1.00
22426;DHT22;11380;50.822;15.790;2023-06-10T22:42:08;11.80;1.00
22426;DHT22;11380;50.822;15.790;2023-06-10T22:47:16;11.40;1.00
22426;DHT22;11380;50.822;15.790;2023-06-10T22:52:23;11.60;1.00
22426;DHT22;11380;50.822;15.790;2023-06-10T22:57:30;11.50;1.00
22426;DHT22;11380;50.822;15.790;2023-06-10T23:02:38;11.80;1.00
22426;DHT22;11380;50.822;15.790;2023-06-10T23:07:45;11.50;1.00
22426;DHT22;11380;50.822;15.790;2023-06-10T23:12:51;11.20;1.00
22426;DHT22;11380;50.822;15.790;2023-06-10T23:17:58;11.40;1.00
22426;DHT22;11380;50.822;15.790;2023-06-10T23:23:07;11.60;1.00
22426;DHT22;11380;50.822;15.790;2023-06-10T23:28:16;11.50;1.00
22426;DHT22;11380;50.822;15.790;2023-06-10T23:33:23;11.00;1.00
22426;DHT22;11380;50.822;15.790;2023-06-10T23:38:32;10.80;1.00
22426;DHT22;11380;50.822;15.790;2023-06-10T23:43:40;10.90;1.00
22426;DHT22;11380;50.822;15.790;2023-06-10T23:48:47;11.20;1.00
22426;DHT22;11380;50.822;15.790;2023-06-10T23:53:55;10.80;1.00
22426;DHT22;11380;50.822;15.790;2023-06-10T23:59:03;10.80;1.00
